Airfield :
LOGIN :

Register | Disclaimer

   EN    FR    IT 

 










Legend :    VFR   Marginal VFR   IFR   Intensive IFR   Very Intensive IFR
Visi :
Ceiling :
>= 8 km
>= 3000ft
5 to 8 km
1000 to 3000 ft
1500m to 5 km
500 to 1000 ft
800 to 1500m
200 to 500 ft
< 800m
< 200 ft
Symbols :   Thunderstorms  Fog  Heavy snow  Heavy precipitations  Wind > 20 kt
SIGMETs :     Misc.  Thunderstorms  Icing  Turbulence  Mountain Waves  Volcanic Ashes






- Airport Elevation : 1789 ft
- IATA code : PRN


BKPR - Pristina

CURRENT METAR :
  • 251400Z 30004KT 260V340 9999 SCT030 BKN080 14/08 Q1014 NOSIG

EXPIRED METARs :
  • 251330Z VRB03KT 9999 SCT030 SCT080 14/07 Q1014 NOSIG
  • 251300Z VRB02KT 9999 SCT030 SCT080 14/09 Q1014 NOSIG
  • 251230Z 23010KT 7000 SCT030 BKN060 14/08 Q1014 NOSIG
  • 251200Z VRB03KT 5000 BR SCT030 BKN050 13/09 Q1014 RERA NOSIG
  • 251130Z VRB01KT 9999 -RA SCT030 BKN050 14/09 Q1015 NOSIG

TAF TAF BKPR
Valid from the 25 at 12:00 until the 26 at 12:00 UTC


251130Z 2512/2612 25006KT 9999 BKN040
TEMPO 2512/2518 5000 SHRA
BECMG 2600/2602 2000 BR
BECMG 2602/2604 0300 FG BKN003
BECMG 2608/2610 CAVOK



MET'MAP, your aeronautical weather chart ! - Copyright ORBIFLY December 2007 - Disclaimer

ORBIFLY MET'MAP TEAM :

Programming & Development : Alexandra Zaïnal
Concept & original design : Baudouin d'Aumeries
Assistance for programming : Marc-Olivier Méhu
Technical & hardware support : Manuel Goepfert

Contact : metmap@orbifly.com




SOURCES & CREDITS :

   NOAA